Time;durP1;ratioP1;P1;durP2;ratioP2;P2;SDS_P1;SDS_P2;PMS_P1;PMS_P2;Temp;Humidity;BMP_temperature;BMP_pressure;BME280_temperature;BME280_humidity;BME280_pressure;Samples;Min_cycle;Max_cycle;Signal;HPM_P1;HPM_P2
2021/11/25 00:00:42;;;;;;;5.00;4.50;;;5.90;99.90;;;;;;5012515;28;20736;-75
2021/11/25 00:03:08;;;;;;;4.57;4.23;;;5.80;99.90;;;;;;5010327;28;20439;-76
2021/11/25 00:05:34;;;;;;;5.50;4.17;;;5.80;99.90;;;;;;5017228;28;20244;-75
2021/11/25 00:08:02;;;;;;;6.00;4.23;;;5.80;99.90;;;;;;5013636;28;20428;-75
2021/11/25 00:10:28;;;;;;;5.97;4.13;;;5.80;99.90;;;;;;5013220;28;20183;-75
2021/11/25 00:12:55;;;;;;;4.83;4.43;;;5.80;99.90;;;;;;5010953;28;20432;-75
2021/11/25 00:15:21;;;;;;;5.37;4.20;;;5.80;99.90;;;;;;5015809;28;20921;-75
2021/11/25 00:17:47;;;;;;;4.70;4.13;;;5.80;99.90;;;;;;5012572;28;20457;-75
2021/11/25 00:20:14;;;;;;;3.83;3.50;;;5.80;99.90;;;;;;5013284;28;20929;-75
2021/11/25 00:22:41;;;;;;;6.37;4.87;;;5.80;99.90;;;;;;5007806;28;20592;-75
2021/11/25 00:25:08;;;;;;;6.90;4.03;;;5.80;99.90;;;;;;5010456;28;20433;-75
2021/11/25 00:27:34;;;;;;;4.77;4.40;;;5.80;99.90;;;;;;5011113;28;20430;-75
2021/11/25 00:30:00;;;;;;;4.80;4.40;;;5.80;99.90;;;;;;5010449;28;20444;-75
2021/11/25 00:32:26;;;;;;;4.80;4.07;;;5.80;99.90;;;;;;5012571;28;20197;-75
2021/11/25 00:34:52;;;;;;;5.00;4.50;;;5.80;99.90;;;;;;5014797;28;20182;-75
2021/11/25 00:37:17;;;;;;;5.23;4.73;;;5.80;99.90;;;;;;5010992;28;20202;-75
2021/11/25 00:39:44;;;;;;;4.37;3.97;;;5.80;99.90;;;;;;5010364;28;20249;-75
2021/11/25 00:42:09;;;;;;;4.70;4.30;;;5.80;99.90;;;;;;5012504;28;20185;-75
2021/11/25 00:44:35;;;;;;;7.07;4.47;;;5.80;99.90;;;;;;5014340;28;20426;-75
2021/11/25 00:47:01;;;;;;;5.97;4.10;;;5.80;99.90;;;;;;5009489;28;20606;-75
2021/11/25 00:49:27;;;;;;;4.00;3.70;;;5.80;99.90;;;;;;5002220;28;20186;-75
2021/11/25 00:51:52;;;;;;;4.77;4.13;;;5.80;99.90;;;;;;5018179;28;20181;-75
2021/11/25 00:54:18;;;;;;;4.10;3.80;;;5.80;99.90;;;;;;5010995;28;20257;-75
2021/11/25 00:56:44;;;;;;;3.40;3.10;;;5.70;99.90;;;;;;5013923;28;20623;-75
2021/11/25 00:59:11;;;;;;;4.10;3.70;;;5.70;99.90;;;;;;5009592;28;20433;-75
2021/11/25 01:01:37;;;;;;;4.53;4.13;;;5.70;99.90;;;;;;5014900;28;20177;-75
2021/11/25 01:04:04;;;;;;;3.60;3.40;;;5.70;99.90;;;;;;5011081;28;20429;-75
2021/11/25 01:06:30;;;;;;;5.43;4.90;;;5.70;99.90;;;;;;5014249;28;20956;-75
2021/11/25 01:08:57;;;;;;;5.53;5.00;;;5.70;99.90;;;;;;5009154;28;20470;-75
2021/11/25 01:11:25;;;;;;;5.57;5.03;;;5.70;99.90;;;;;;5014648;28;20467;-75
2021/11/25 01:13:52;;;;;;;5.00;4.50;;;5.70;99.90;;;;;;5015998;28;20483;-75
2021/11/25 01:16:18;;;;;;;6.17;4.67;;;5.70;99.90;;;;;;5014848;28;20552;-75
2021/11/25 01:18:44;;;;;;;4.93;4.20;;;5.70;99.90;;;;;;5013467;28;20832;-75
2021/11/25 01:21:10;;;;;;;4.90;4.50;;;5.70;99.90;;;;;;5022647;28;20517;-75
2021/11/25 01:23:36;;;;;;;7.30;4.20;;;5.70;99.90;;;;;;5020122;28;20428;-75
2021/11/25 01:26:02;;;;;;;6.37;5.10;;;5.70;99.90;;;;;;5017656;28;20182;-75
2021/11/25 01:28:29;;;;;;;7.23;5.17;;;5.70;99.90;;;;;;5015225;28;20431;-75
2021/11/25 01:30:58;;;;;;;4.70;4.30;;;5.60;99.90;;;;;;5022071;28;20427;-75
2021/11/25 01:33:24;;;;;;;4.53;4.00;;;5.60;99.90;;;;;;5020713;28;20433;-75
2021/11/25 01:35:51;;;;;;;4.33;4.03;;;5.60;99.90;;;;;;5025287;28;20403;-75
2021/11/25 01:38:17;;;;;;;5.70;4.30;;;5.60;99.90;;;;;;5017371;28;20437;-75
2021/11/25 01:40:45;;;;;;;10.00;3.90;;;5.50;99.90;;;;;;5021900;28;20905;-75
2021/11/25 01:43:12;;;;;;;4.90;4.40;;;5.50;99.90;;;;;;5022200;28;20830;-75
2021/11/25 01:45:38;;;;;;;5.23;4.70;;;5.50;99.90;;;;;;5019231;28;20571;-75
2021/11/25 01:48:05;;;;;;;5.30;4.00;;;5.50;99.90;;;;;;5021134;28;20905;-75
2021/11/25 01:50:32;;;;;;;3.70;3.40;;;5.50;99.90;;;;;;5019664;28;20502;-75
2021/11/25 01:52:58;;;;;;;4.90;3.40;;;5.50;99.90;;;;;;5020272;28;20421;-75
2021/11/25 01:55:26;;;;;;;4.17;3.77;;;5.50;99.90;;;;;;5018410;28;20521;-75
2021/11/25 01:57:52;;;;;;;3.67;3.37;;;5.50;99.90;;;;;;5021395;28;20465;-75
2021/11/25 02:00:26;;;;;;;3.73;3.40;;;5.50;99.90;;;;;;5013342;28;20502;-75
2021/11/25 02:02:54;;;;;;;4.50;4.20;;;5.50;99.90;;;;;;5021458;28;20497;-75
2021/11/25 02:05:20;;;;;;;5.83;3.83;;;5.40;99.90;;;;;;5017662;28;20439;-75
2021/11/25 02:07:46;;;;;;;5.47;3.53;;;5.40;99.90;;;;;;5022503;28;20434;-75
2021/11/25 02:10:13;;;;;;;5.07;4.57;;;5.40;99.90;;;;;;5015058;28;20450;-75
2021/11/25 02:12:40;;;;;;;4.23;3.70;;;5.40;99.90;;;;;;5018982;28;20429;-75
2021/11/25 02:15:07;;;;;;;3.83;3.53;;;5.40;99.90;;;;;;5021300;28;20449;-75
2021/11/25 02:17:34;;;;;;;3.93;3.60;;;5.40;99.90;;;;;;5021551;28;20503;-75
2021/11/25 02:20:00;;;;;;;4.40;3.60;;;5.40;99.90;;;;;;5020665;28;20425;-75
2021/11/25 02:22:26;;;;;;;4.23;3.83;;;5.40;99.90;;;;;;5022542;28;20448;-75
2021/11/25 02:24:52;;;;;;;3.90;3.60;;;5.40;99.90;;;;;;5021273;28;20492;-75
2021/11/25 02:27:19;;;;;;;5.00;3.70;;;5.40;99.90;;;;;;5018377;28;20503;-75
2021/11/25 02:29:45;;;;;;;4.80;3.87;;;5.40;99.90;;;;;;5014461;28;20436;-75
2021/11/25 02:32:11;;;;;;;4.70;3.80;;;5.30;99.90;;;;;;5023103;28;20553;-75
2021/11/25 02:34:37;;;;;;;3.80;3.50;;;5.30;99.90;;;;;;5022078;28;20805;-75
2021/11/25 02:37:03;;;;;;;3.37;3.13;;;5.30;99.90;;;;;;5021687;28;20721;-75
2021/11/25 02:39:29;;;;;;;4.10;3.80;;;5.30;99.90;;;;;;5018328;28;20444;-75
2021/11/25 02:41:55;;;;;;;4.63;4.23;;;5.30;99.90;;;;;;5021956;28;20771;-75
2021/11/25 02:44:20;;;;;;;5.10;4.20;;;5.30;99.90;;;;;;5018974;28;20654;-75
2021/11/25 02:46:50;;;;;;;5.40;3.20;;;5.30;99.90;;;;;;5020644;28;20189;-75
2021/11/25 02:49:16;;;;;;;5.07;4.60;;;5.30;99.90;;;;;;5016402;28;20170;-75
2021/11/25 02:51:42;;;;;;;4.20;3.90;;;5.30;99.90;;;;;;5022310;28;20437;-75
2021/11/25 02:54:07;;;;;;;4.07;3.67;;;5.30;99.90;;;;;;5018459;28;20436;-75
2021/11/25 02:56:34;;;;;;;4.70;4.20;;;5.40;99.90;;;;;;5022764;28;20274;-75
2021/11/25 02:59:00;;;;;;;4.50;4.10;;;5.40;99.90;;;;;;5018248;28;20582;-75
2021/11/25 03:01:29;;;;;;;6.67;5.03;;;5.40;99.90;;;;;;5018046;28;20433;-75
2021/11/25 03:03:56;;;;;;;4.90;4.17;;;5.40;99.90;;;;;;5018999;28;20425;-75
2021/11/25 03:06:22;;;;;;;4.80;4.23;;;5.40;99.90;;;;;;5019932;28;20433;-75
2021/11/25 03:08:48;;;;;;;4.97;4.47;;;5.50;99.90;;;;;;5016814;28;20436;-75
2021/11/25 03:11:17;;;;;;;4.57;4.20;;;5.50;99.90;;;;;;5023587;28;21020;-75
2021/11/25 03:13:46;;;;;;;7.90;5.57;;;5.50;99.90;;;;;;5016380;28;20950;-75
2021/11/25 03:16:14;;;;;;;6.13;5.57;;;5.50;99.90;;;;;;5020633;28;20429;-75
2021/11/25 03:18:41;;;;;;;8.03;6.47;;;5.50;99.90;;;;;;5021413;28;20759;-75
2021/11/25 03:21:08;;;;;;;8.53;7.30;;;5.50;99.90;;;;;;5021232;28;20512;-75
2021/11/25 03:23:37;;;;;;;8.13;5.90;;;5.50;99.90;;;;;;5005328;28;20482;-75
2021/11/25 03:26:05;;;;;;;8.27;6.63;;;5.50;99.90;;;;;;5019745;28;20908;-75
2021/11/25 03:28:33;;;;;;;8.90;6.07;;;5.50;99.90;;;;;;5019406;28;20943;-75
2021/11/25 03:30:59;;;;;;;8.63;7.17;;;5.50;99.90;;;;;;5018877;28;20445;-75
2021/11/25 03:33:30;;;;;;;7.90;6.90;;;5.50;99.90;;;;;;5017566;28;20435;-75
2021/11/25 03:35:57;;;;;;;7.20;6.50;;;5.50;99.90;;;;;;5021156;28;20562;-75
2021/11/25 03:38:24;;;;;;;9.17;7.93;;;5.50;99.90;;;;;;5014623;28;20447;-75
2021/11/25 03:40:50;;;;;;;9.20;6.90;;;5.50;99.90;;;;;;5020592;28;20436;-75
2021/11/25 03:43:16;;;;;;;7.40;6.67;;;5.50;99.90;;;;;;5020069;28;20515;-75
2021/11/25 03:45:42;;;;;;;7.30;6.27;;;5.40;99.90;;;;;;5019730;28;20428;-75
2021/11/25 03:48:08;;;;;;;8.50;7.00;;;5.40;99.90;;;;;;5019790;28;20441;-75
2021/11/25 03:50:34;;;;;;;7.00;6.30;;;5.40;99.90;;;;;;5018007;28;20440;-75
2021/11/25 03:53:01;;;;;;;10.40;6.93;;;5.40;99.90;;;;;;5019544;28;20926;-75
2021/11/25 03:55:27;;;;;;;7.10;6.40;;;5.30;99.90;;;;;;5020210;28;20905;-75
2021/11/25 03:57:53;;;;;;;6.80;6.10;;;5.30;99.90;;;;;;5020193;28;20503;-75
2021/11/25 04:00:21;;;;;;;6.57;5.80;;;5.20;99.90;;;;;;5017723;28;20510;-75
2021/11/25 04:02:48;;;;;;;7.67;5.90;;;5.20;99.90;;;;;;5021407;28;20503;-75
2021/11/25 04:05:15;;;;;;;6.67;6.07;;;5.10;99.90;;;;;;5017348;28;20430;-75
2021/11/25 04:07:41;;;;;;;6.57;5.97;;;5.10;99.90;;;;;;5023096;28;20798;-75
2021/11/25 04:10:09;;;;;;;8.10;5.80;;;5.10;99.90;;;;;;5018173;28;20439;-75
2021/11/25 04:12:35;;;;;;;8.20;6.93;;;5.20;99.90;;;;;;5017177;28;20498;-75
2021/11/25 04:15:01;;;;;;;15.53;6.77;;;5.10;99.90;;;;;;5018668;28;20437;-75
2021/11/25 04:17:28;;;;;;;8.43;6.23;;;5.00;99.90;;;;;;5020455;28;20480;-75
2021/11/25 04:19:54;;;;;;;5.37;4.87;;;5.00;99.90;;;;;;5017676;28;20515;-75
2021/11/25 04:22:23;;;;;;;7.13;6.50;;;5.00;99.90;;;;;;5021010;28;20610;-75
2021/11/25 04:24:50;;;;;;;10.13;6.80;;;5.00;99.90;;;;;;5018713;28;20258;-75
2021/11/25 04:27:16;;;;;;;6.83;6.23;;;5.00;99.90;;;;;;5019891;28;20526;-75
2021/11/25 04:29:46;;;;;;;6.23;5.50;;;5.00;99.90;;;;;;5018608;28;20452;-75
2021/11/25 04:37:43;;;;;;;8.27;6.03;;;5.00;99.90;;;;;;5016733;28;20506;-75
2021/11/25 04:40:10;;;;;;;8.57;6.87;;;4.90;99.90;;;;;;5018335;28;20936;-75
2021/11/25 04:42:36;;;;;;;6.40;5.80;;;4.90;99.90;;;;;;5016416;28;20914;-75
2021/11/25 04:45:02;;;;;;;7.57;6.43;;;4.90;99.90;;;;;;5019216;28;20431;-75
2021/11/25 04:47:28;;;;;;;7.63;6.70;;;4.90;99.90;;;;;;5019431;28;20191;-75
2021/11/25 04:49:54;;;;;;;7.73;5.90;;;4.90;99.90;;;;;;5018291;28;20436;-75
2021/11/25 04:52:19;;;;;;;7.83;6.10;;;4.90;99.90;;;;;;5021585;28;20518;-75
2021/11/25 04:54:45;;;;;;;7.67;6.43;;;4.90;99.90;;;;;;5018160;28;20261;-75
2021/11/25 04:57:11;;;;;;;9.23;7.20;;;4.90;99.90;;;;;;5016968;28;20215;-75
2021/11/25 04:59:37;;;;;;;10.03;6.50;;;4.90;99.90;;;;;;5012288;28;20219;-75
2021/11/25 05:02:03;;;;;;;7.93;6.03;;;4.90;99.90;;;;;;5019845;28;20429;-75
2021/11/25 05:04:29;;;;;;;6.27;5.67;;;4.90;99.90;;;;;;5019749;28;20193;-75
2021/11/25 05:06:55;;;;;;;6.73;5.97;;;4.80;99.90;;;;;;5018704;28;20441;-75
2021/11/25 05:09:21;;;;;;;6.67;6.07;;;4.80;99.90;;;;;;5016970;28;20436;-75
2021/11/25 05:11:46;;;;;;;11.07;6.60;;;4.80;99.90;;;;;;5018670;28;20190;-75
2021/11/25 05:14:12;;;;;;;7.73;5.63;;;4.90;99.90;;;;;;5016378;28;20205;-75
2021/11/25 05:16:38;;;;;;;7.80;6.00;;;4.90;99.90;;;;;;5010209;28;20348;-75
2021/11/25 05:19:03;;;;;;;5.63;5.03;;;4.90;99.90;;;;;;5016294;28;20822;-75
2021/11/25 05:21:29;;;;;;;7.97;6.60;;;4.90;99.90;;;;;;5019149;28;20572;-75
2021/11/25 05:23:55;;;;;;;6.00;5.43;;;4.90;99.90;;;;;;5012360;28;20269;-75
2021/11/25 05:26:21;;;;;;;6.70;6.00;;;4.80;99.90;;;;;;5011014;28;20265;-75
2021/11/25 05:28:47;;;;;;;7.07;6.37;;;4.80;99.90;;;;;;5013081;28;20197;-75
2021/11/25 05:31:12;;;;;;;6.30;5.77;;;4.80;99.90;;;;;;5013142;28;20178;-75
2021/11/25 05:33:38;;;;;;;7.13;6.43;;;4.80;99.90;;;;;;5013078;28;20447;-75
2021/11/25 05:36:04;;;;;;;7.53;6.80;;;4.80;99.90;;;;;;5017369;28;20210;-75
2021/11/25 05:38:30;;;;;;;8.90;6.47;;;4.80;99.90;;;;;;5015354;28;20237;-75
2021/11/25 05:40:55;;;;;;;8.10;7.20;;;4.80;99.90;;;;;;5012393;28;20428;-75
2021/11/25 05:43:21;;;;;;;8.17;7.00;;;4.80;99.90;;;;;;5015126;28;20604;-75
2021/11/25 05:45:47;;;;;;;8.93;7.97;;;4.80;99.90;;;;;;5016044;28;21015;-75
2021/11/25 05:48:13;;;;;;;10.73;8.57;;;4.80;99.90;;;;;;5018853;28;20193;-75
2021/11/25 05:50:39;;;;;;;12.13;7.80;;;4.80;99.90;;;;;;5002522;28;20473;-75
2021/11/25 05:53:05;;;;;;;10.80;8.37;;;4.80;99.90;;;;;;5014029;28;20498;-75
2021/11/25 05:55:31;;;;;;;9.87;8.10;;;4.80;99.90;;;;;;5011402;28;20593;-75
2021/11/25 05:58:05;;;;;;;11.83;8.27;;;4.80;99.90;;;;;;5018397;28;20590;-73
2021/11/25 06:00:31;;;;;;;8.37;7.47;;;4.80;99.90;;;;;;5012222;28;20178;-75
2021/11/25 06:02:57;;;;;;;7.80;6.90;;;4.80;99.90;;;;;;5012471;28;21983;-75
2021/11/25 06:05:23;;;;;;;9.87;8.67;;;4.80;99.90;;;;;;5014504;28;20202;-75
2021/11/25 06:07:50;;;;;;;11.47;8.80;;;4.80;99.90;;;;;;5020588;28;20280;-75
2021/11/25 06:10:18;;;;;;;11.87;8.77;;;4.90;99.90;;;;;;5016362;28;20438;-75
2021/11/25 06:12:44;;;;;;;10.63;8.13;;;4.90;99.90;;;;;;5004042;28;20909;-75
2021/11/25 06:15:10;;;;;;;12.50;8.33;;;4.90;99.90;;;;;;5014140;28;20432;-75
2021/11/25 06:17:36;;;;;;;9.43;7.70;;;4.90;99.90;;;;;;5013474;28;20883;-75
2021/11/25 06:20:03;;;;;;;11.40;8.33;;;4.90;99.90;;;;;;5018686;28;20432;-75
2021/11/25 06:22:29;;;;;;;10.67;8.40;;;4.90;99.90;;;;;;5023791;28;20459;-75
2021/11/25 06:24:55;;;;;;;10.83;8.37;;;4.90;99.90;;;;;;5020676;28;20471;-75
2021/11/25 06:27:21;;;;;;;11.90;9.33;;;4.80;99.90;;;;;;5017929;28;20216;-75
2021/11/25 06:29:46;;;;;;;9.27;8.07;;;4.80;99.90;;;;;;5018465;28;20260;-75
2021/11/25 06:32:12;;;;;;;10.43;8.87;;;4.80;99.90;;;;;;5021479;28;20188;-75
2021/11/25 06:34:38;;;;;;;13.37;9.67;;;4.80;99.90;;;;;;5015621;28;20268;-75
2021/11/25 06:37:04;;;;;;;14.93;10.07;;;4.80;99.90;;;;;;5011186;28;20493;-75
2021/11/25 06:39:29;;;;;;;14.87;11.17;;;4.80;99.90;;;;;;5014441;28;20638;-76
2021/11/25 06:41:56;;;;;;;18.50;11.90;;;4.80;99.90;;;;;;5006927;28;20200;-75
2021/11/25 06:44:22;;;;;;;14.73;11.33;;;4.80;99.90;;;;;;5013307;28;20178;-75
2021/11/25 06:46:48;;;;;;;11.27;10.13;;;4.90;99.90;;;;;;5013576;28;20452;-75
2021/11/25 06:49:13;;;;;;;16.53;10.67;;;4.90;99.90;;;;;;5005414;28;20178;-74
2021/11/25 06:51:42;;;;;;;14.77;11.70;;;4.90;99.90;;;;;;5019818;28;20190;-75
2021/11/25 06:54:08;;;;;;;13.33;10.30;;;4.90;99.90;;;;;;5020914;28;20178;-75
2021/11/25 06:56:33;;;;;;;15.13;11.57;;;4.90;99.90;;;;;;5015291;28;20543;-75
2021/11/25 06:58:59;;;;;;;16.83;11.63;;;4.90;99.90;;;;;;5010900;28;20201;-75
2021/11/25 07:01:25;;;;;;;14.97;12.30;;;4.90;99.90;;;;;;5015731;28;20517;-75
2021/11/25 07:03:51;;;;;;;17.63;12.40;;;4.90;99.90;;;;;;5016672;28;20182;-75
2021/11/25 07:06:17;;;;;;;15.13;11.60;;;4.80;99.90;;;;;;5020416;28;20691;-75
2021/11/25 07:08:42;;;;;;;14.17;10.73;;;4.80;99.90;;;;;;5014278;28;20516;-74
2021/11/25 07:11:08;;;;;;;13.70;11.23;;;4.80;99.90;;;;;;5013581;28;20234;-75
2021/11/25 07:13:34;;;;;;;13.40;10.73;;;4.80;99.90;;;;;;5013433;28;20229;-75
2021/11/25 07:16:00;;;;;;;14.63;10.90;;;4.90;99.90;;;;;;5011208;28;20178;-75
2021/11/25 07:18:26;;;;;;;13.23;11.10;;;4.90;99.90;;;;;;5022181;28;20467;-75
2021/11/25 07:20:52;;;;;;;14.67;11.70;;;4.90;99.90;;;;;;5020225;28;20426;-75
2021/11/25 07:23:18;;;;;;;13.83;10.93;;;4.90;99.90;;;;;;5023868;28;20174;-75
2021/11/25 07:25:43;;;;;;;15.80;11.97;;;4.90;99.90;;;;;;5019981;28;20181;-75
2021/11/25 07:28:09;;;;;;;14.17;11.40;;;4.90;99.90;;;;;;5014629;28;20441;-74
2021/11/25 07:30:35;;;;;;;16.23;11.07;;;4.90;99.90;;;;;;5006313;28;20273;-75
2021/11/25 07:33:01;;;;;;;15.40;11.50;;;4.90;99.90;;;;;;5012591;28;20193;-75
2021/11/25 07:35:27;;;;;;;19.10;11.27;;;5.00;99.90;;;;;;5017377;28;20432;-75
2021/11/25 07:37:54;;;;;;;16.00;10.43;;;5.00;99.90;;;;;;5019954;28;20772;-75
2021/11/25 07:40:22;;;;;;;13.87;11.37;;;5.00;99.90;;;;;;5013188;28;20520;-75
2021/11/25 07:42:48;;;;;;;17.60;12.13;;;5.10;99.90;;;;;;5017797;28;20918;-75
2021/11/25 07:45:15;;;;;;;14.70;11.27;;;5.10;99.90;;;;;;5014535;28;20437;-75
2021/11/25 07:47:42;;;;;;;19.73;11.80;;;5.10;99.90;;;;;;5019555;28;20437;-75
2021/11/25 07:50:14;;;;;;;15.37;11.87;;;5.10;99.90;;;;;;5013198;28;20442;-75
2021/11/25 07:52:40;;;;;;;15.70;10.70;;;5.10;99.90;;;;;;5019518;28;20439;-75
2021/11/25 07:55:08;;;;;;;13.07;11.00;;;5.20;99.90;;;;;;5011532;28;20829;-75
2021/11/25 07:57:34;;;;;;;15.43;11.70;;;5.20;99.90;;;;;;5008753;28;20556;-75
2021/11/25 08:00:00;;;;;;;19.30;13.87;;;5.30;99.90;;;;;;5013990;28;20827;-75
2021/11/25 08:02:27;;;;;;;16.93;11.67;;;5.30;99.90;;;;;;5008189;28;20465;-75
2021/11/25 08:04:53;;;;;;;16.70;11.90;;;5.30;99.90;;;;;;5014465;28;20642;-75
2021/11/25 08:07:19;;;;;;;18.87;13.17;;;5.30;99.90;;;;;;5016784;28;20433;-75
2021/11/25 08:09:44;;;;;;;18.53;13.50;;;5.30;99.90;;;;;;5014956;28;20446;-75
2021/11/25 08:12:11;;;;;;;21.30;15.37;;;5.30;99.90;;;;;;5017171;28;20436;-75
2021/11/25 08:14:37;;;;;;;24.40;16.47;;;5.40;99.90;;;;;;5017182;28;20174;-75
2021/11/25 08:17:02;;;;;;;22.80;15.43;;;5.40;99.90;;;;;;5017219;28;20850;-75
2021/11/25 08:19:29;;;;;;;27.80;18.07;;;5.40;99.90;;;;;;5014136;28;20464;-76
2021/11/25 08:21:55;;;;;;;25.10;17.73;;;5.30;99.90;;;;;;5018029;28;20173;-75
2021/11/25 08:24:21;;;;;;;19.93;15.10;;;5.30;99.90;;;;;;5016583;28;20443;-76
2021/11/25 08:26:47;;;;;;;28.90;17.57;;;5.30;99.90;;;;;;5015976;28;20433;-76
2021/11/25 08:29:13;;;;;;;27.57;16.50;;;5.30;99.90;;;;;;5018533;28;20186;-76
2021/11/25 08:31:39;;;;;;;27.00;16.80;;;5.30;99.90;;;;;;5013308;28;20490;-75
2021/11/25 08:34:05;;;;;;;24.23;15.93;;;5.30;99.90;;;;;;5018832;28;20202;-76
2021/11/25 08:36:31;;;;;;;22.77;15.67;;;5.30;99.90;;;;;;5017928;28;20453;-76
2021/11/25 08:38:57;;;;;;;28.10;16.23;;;5.30;99.90;;;;;;5010401;28;20262;-75
2021/11/25 08:41:25;;;;;;;28.93;18.87;;;5.30;99.90;;;;;;5015863;28;21182;-75
2021/11/25 08:43:51;;;;;;;28.10;16.93;;;5.30;99.90;;;;;;5012232;28;20182;-76
2021/11/25 08:46:17;;;;;;;30.00;16.50;;;5.30;99.90;;;;;;5013182;28;20900;-76
2021/11/25 08:48:43;;;;;;;27.37;17.70;;;5.30;99.90;;;;;;5012423;28;20520;-76
2021/11/25 08:51:10;;;;;;;30.40;19.20;;;5.40;99.90;;;;;;5014456;28;20491;-76
2021/11/25 08:53:37;;;;;;;28.87;19.43;;;5.50;99.90;;;;;;5012717;28;22543;-76
2021/11/25 08:56:05;;;;;;;25.20;16.57;;;5.50;99.90;;;;;;5014571;28;20768;-75
2021/11/25 08:58:32;;;;;;;27.20;16.73;;;5.50;99.90;;;;;;5017354;28;20811;-76
2021/11/25 09:00:58;;;;;;;33.23;20.03;;;5.50;99.90;;;;;;5015598;28;20506;-76
2021/11/25 09:03:24;;;;;;;31.10;18.87;;;5.50;99.90;;;;;;5007327;28;20902;-76
2021/11/25 09:05:49;;;;;;;25.93;16.73;;;5.50;99.90;;;;;;5016612;28;20261;-76
2021/11/25 09:08:15;;;;;;;35.43;20.33;;;5.50;99.90;;;;;;5012315;28;20559;-75
2021/11/25 09:10:41;;;;;;;32.00;17.80;;;5.50;99.90;;;;;;5007958;28;20182;-76
2021/11/25 09:13:07;;;;;;;29.93;20.77;;;5.50;99.90;;;;;;5013578;28;20175;-81
2021/11/25 09:15:34;;;;;;;37.10;20.20;;;5.50;99.90;;;;;;5001813;28;20649;-79
2021/11/25 09:18:02;;;;;;;34.97;22.10;;;5.60;99.90;;;;;;5013994;28;20483;-80
2021/11/25 09:20:33;;;;;;;38.37;21.40;;;5.60;99.90;;;;;;5013698;28;20518;-81
2021/11/25 09:23:04;;;;;;;31.30;19.90;;;5.60;99.90;;;;;;5015056;28;20924;-81
2021/11/25 09:25:30;;;;;;;35.37;19.77;;;5.60;99.90;;;;;;5015405;28;20451;-81
2021/11/25 09:27:56;;;;;;;36.90;20.77;;;5.70;99.90;;;;;;5012087;28;20436;-81
2021/11/25 09:30:22;;;;;;;34.43;20.90;;;5.70;99.90;;;;;;5009800;28;20432;-80
2021/11/25 09:32:49;;;;;;;39.87;22.20;;;5.70;99.90;;;;;;5010831;28;20783;-79
2021/11/25 09:35:14;;;;;;;31.87;21.17;;;5.70;99.90;;;;;;5014942;28;20202;-81
2021/11/25 09:37:40;;;;;;;42.03;22.30;;;5.70;99.90;;;;;;5014336;28;20488;-76
2021/11/25 09:40:13;;;;;;;36.70;21.70;;;5.80;99.90;;;;;;5013091;28;20539;-77
2021/11/25 09:42:39;;;;;;;35.40;20.70;;;5.80;99.90;;;;;;5017231;28;20420;-77
2021/11/25 09:45:06;;;;;;;31.17;19.70;;;5.90;99.90;;;;;;5016310;28;20428;-77
2021/11/25 09:47:32;;;;;;;31.47;22.07;;;5.90;99.90;;;;;;5019962;28;20564;-80
2021/11/25 09:50:00;;;;;;;39.87;22.03;;;5.80;99.90;;;;;;5015393;28;20439;-80
2021/11/25 09:52:26;;;;;;;34.87;20.60;;;5.80;99.90;;;;;;5017952;28;20882;-81
2021/11/25 09:54:52;;;;;;;34.00;22.00;;;5.80;99.90;;;;;;5017345;28;20436;-82
2021/11/25 09:57:17;;;;;;;43.57;21.93;;;5.90;99.90;;;;;;5017818;28;20271;-81
2021/11/25 09:59:43;;;;;;;35.23;21.07;;;5.90;99.90;;;;;;5014959;28;20179;-79
2021/11/25 10:02:09;;;;;;;30.90;20.90;;;5.90;99.90;;;;;;5010668;28;20189;-81
2021/11/25 10:04:35;;;;;;;30.57;20.13;;;6.00;99.90;;;;;;5012910;28;20515;-81
2021/11/25 10:07:01;;;;;;;37.23;20.70;;;6.10;99.90;;;;;;5017638;28;20178;-80
2021/11/25 10:09:41;;;;;;;33.30;21.40;;;6.10;99.90;;;;;;5009303;28;22049;-80
2021/11/25 10:12:32;;;;;;;39.43;22.83;;;6.20;99.90;;;;;;5018304;28;20257;-81
2021/11/25 10:15:01;;;;;;;30.20;18.83;;;6.20;99.90;;;;;;5013023;28;20907;-81
2021/11/25 10:17:49;;;;;;;30.63;19.40;;;6.30;99.90;;;;;;5012982;28;20461;-77
2021/11/25 10:20:19;;;;;;;34.10;19.70;;;6.30;99.90;;;;;;5016395;28;20429;-81
2021/11/25 10:23:03;;;;;;;34.77;21.30;;;6.30;99.90;;;;;;5021670;28;20433;-77
2021/11/25 10:25:59;;;;;;;35.90;20.70;;;6.20;99.90;;;;;;5018961;28;20429;-77
2021/11/25 10:28:51;;;;;;;31.90;20.50;;;6.20;99.90;;;;;;5019654;28;20450;-78
2021/11/25 10:31:29;;;;;;;35.40;22.73;;;6.30;99.90;;;;;;5019603;28;20435;-77
2021/11/25 10:34:18;;;;;;;35.67;22.17;;;6.30;99.90;;;;;;5013460;28;20416;-79
2021/11/25 10:41:56;;;;;;;40.73;22.53;;;6.40;99.90;;;;;;5018938;28;20515;-76
2021/11/25 10:44:33;;;;;;;43.53;24.60;;;6.50;99.90;;;;;;5015661;28;20990;-76
2021/11/25 10:47:07;;;;;;;32.93;21.70;;;6.50;99.90;;;;;;5014927;28;20437;-75
2021/11/25 10:49:46;;;;;;;37.33;22.37;;;6.60;99.90;;;;;;5014811;28;20431;-75
2021/11/25 10:52:20;;;;;;;36.57;22.00;;;6.60;99.90;;;;;;5016096;28;20429;-75
2021/11/25 10:54:58;;;;;;;37.93;22.80;;;6.70;99.90;;;;;;5011817;28;20516;-79
2021/11/25 10:57:40;;;;;;;35.67;20.90;;;6.70;99.90;;;;;;5015351;28;20526;-78
2021/11/25 11:00:23;;;;;;;35.13;22.20;;;6.80;99.90;;;;;;5014672;28;20445;-75
2021/11/25 11:03:07;;;;;;;43.10;24.57;;;6.90;99.90;;;;;;5016417;28;20544;-76
2021/11/25 11:05:51;;;;;;;39.90;23.13;;;6.90;99.90;;;;;;5016980;28;20436;-74
2021/11/25 11:08:17;;;;;;;34.53;22.53;;;6.90;99.90;;;;;;5015668;28;20447;-72
2021/11/25 11:11:05;;;;;;;36.17;23.33;;;7.00;99.90;;;;;;5007406;28;20450;-82
2021/11/25 11:13:46;;;;;;;40.93;23.83;;;6.90;99.90;;;;;;5008243;28;20424;-81
2021/11/25 11:16:26;;;;;;;43.43;22.70;;;6.80;99.90;;;;;;5013100;28;20428;-80
2021/11/25 11:18:57;;;;;;;36.60;21.70;;;6.80;99.90;;;;;;5012818;28;20436;-81
2021/11/25 11:21:39;;;;;;;37.33;21.57;;;6.80;99.90;;;;;;5017355;28;20441;-73
2021/11/25 11:24:15;;;;;;;44.70;25.07;;;6.80;99.90;;;;;;5014406;28;20433;-74
2021/11/25 11:26:45;;;;;;;44.70;25.57;;;6.70;99.90;;;;;;5016055;28;20436;-80
2021/11/25 11:29:13;;;;;;;41.77;22.70;;;6.70;99.90;;;;;;5012221;28;20814;-81
2021/11/25 11:31:40;;;;;;;42.13;24.80;;;6.70;99.90;;;;;;5015064;28;20436;-81
2021/11/25 11:34:07;;;;;;;42.00;24.87;;;6.60;99.90;;;;;;5001440;28;20444;-82
2021/11/25 11:36:37;;;;;;;51.37;26.57;;;6.60;99.90;;;;;;5016685;28;20479;-78
2021/11/25 11:39:03;;;;;;;52.10;25.57;;;6.50;99.90;;;;;;5016361;28;20422;-80
2021/11/25 11:41:31;;;;;;;43.80;24.57;;;6.50;99.90;;;;;;5011447;28;20430;-81
2021/11/25 11:43:58;;;;;;;48.87;26.50;;;6.50;99.90;;;;;;5011359;28;20832;-82
2021/11/25 11:46:25;;;;;;;40.40;25.63;;;6.40;99.90;;;;;;5007040;28;20433;-82
2021/11/25 11:48:52;;;;;;;47.37;26.07;;;6.40;99.90;;;;;;5007877;28;20495;-81
2021/11/25 11:51:19;;;;;;;45.53;26.73;;;6.40;99.90;;;;;;5011159;28;20433;-82
2021/11/25 11:53:46;;;;;;;55.30;29.00;;;6.30;99.90;;;;;;5007823;28;20850;-82
2021/11/25 11:56:16;;;;;;;50.07;27.40;;;6.30;99.90;;;;;;5013381;28;20476;-82
2021/11/25 11:58:53;;;;;;;39.60;26.20;;;6.30;99.90;;;;;;5009428;28;20517;-83
2021/11/25 12:01:22;;;;;;;47.07;26.50;;;6.40;99.90;;;;;;5009818;28;20439;-81
2021/11/25 12:04:15;;;;;;;48.47;26.93;;;6.40;99.90;;;;;;5012111;28;20480;-78
2021/11/25 12:06:50;;;;;;;52.27;26.90;;;6.20;99.90;;;;;;5011299;28;20444;-73
2021/11/25 12:09:22;;;;;;;53.50;28.50;;;6.30;99.90;;;;;;5010045;28;20501;-77
2021/11/25 12:12:12;;;;;;;48.93;27.37;;;6.20;99.90;;;;;;5018100;28;20798;-77
2021/11/25 12:14:51;;;;;;;48.20;28.70;;;6.10;99.90;;;;;;5015718;28;21680;-73
2021/11/25 12:17:36;;;;;;;51.60;26.90;;;6.10;99.90;;;;;;5014407;28;20552;-77
2021/11/25 12:20:18;;;;;;;53.13;28.00;;;6.10;99.90;;;;;;5014080;28;20936;-78
2021/11/25 12:22:49;;;;;;;59.53;28.27;;;6.20;99.90;;;;;;5014372;28;20428;-78
2021/11/25 12:25:36;;;;;;;56.50;27.43;;;6.10;99.90;;;;;;5012784;28;20440;-82
2021/11/25 12:28:29;;;;;;;52.40;29.37;;;6.10;99.90;;;;;;5012899;28;20444;-82
2021/11/25 12:31:20;;;;;;;50.80;28.23;;;6.00;99.90;;;;;;5010884;28;20437;-83
2021/11/25 12:33:50;;;;;;;51.50;28.17;;;6.00;99.90;;;;;;5011951;28;20425;-82
2021/11/25 12:36:36;;;;;;;48.17;27.77;;;6.10;99.90;;;;;;5013136;28;20468;-82
2021/11/25 12:39:04;;;;;;;49.70;28.63;;;6.10;99.90;;;;;;5013683;28;20476;-82
2021/11/25 12:41:33;;;;;;;54.23;28.77;;;6.00;99.90;;;;;;5014320;28;20437;-82
2021/11/25 12:43:59;;;;;;;53.03;29.77;;;6.00;99.90;;;;;;5016329;28;21571;-82
2021/11/25 12:46:25;;;;;;;49.73;28.73;;;6.00;99.90;;;;;;5011373;28;20785;-79
2021/11/25 12:48:52;;;;;;;46.97;28.23;;;6.00;99.90;;;;;;5020985;28;20978;-79
2021/11/25 12:51:24;;;;;;;44.27;27.93;;;5.90;99.90;;;;;;5020490;28;20182;-78
2021/11/25 12:54:01;;;;;;;45.43;27.77;;;5.90;99.90;;;;;;5009476;28;20475;-77
2021/11/25 12:56:38;;;;;;;49.60;28.63;;;5.90;99.90;;;;;;5009572;28;20460;-83
2021/11/25 12:59:12;;;;;;;49.47;28.10;;;5.90;99.90;;;;;;5014965;28;20518;-79
2021/11/25 13:01:39;;;;;;;44.53;28.00;;;5.90;99.90;;;;;;4999094;28;20448;-77